createdAt,value
2022-08-23T00:02:23.699Z,24.55
2022-08-23T00:07:28.222Z,26.63
2022-08-23T00:12:32.450Z,28.75
2022-08-23T00:17:35.374Z,23.38
2022-08-23T00:22:40.153Z,21.27
2022-08-23T00:27:43.204Z,17.98
2022-08-23T00:32:46.330Z,23.50
2022-08-23T00:38:05.926Z,22.95
2022-08-23T00:43:32.902Z,28.20
2022-08-23T00:48:38.024Z,23.00
2022-08-23T00:53:45.046Z,32.20
2022-08-23T00:58:47.762Z,26.38
2022-08-23T01:04:04.715Z,23.67
2022-08-23T01:09:12.352Z,27.67
2022-08-23T01:14:38.706Z,19.92
2022-08-23T01:19:48.732Z,24.67
2022-08-23T01:25:08.526Z,22.98
2022-08-23T01:30:20.552Z,27.40
2022-08-23T01:35:36.904Z,26.33
2022-08-23T01:40:40.962Z,25.40
2022-08-23T01:45:43.841Z,27.58
2022-08-23T01:50:48.326Z,26.75
2022-08-23T01:55:51.608Z,23.15
2022-08-23T02:00:56.204Z,21.85
2022-08-23T02:05:59.480Z,27.23
2022-08-23T02:11:10.876Z,20.63
2022-08-23T02:16:27.774Z,25.83
2022-08-23T02:21:32.249Z,24.98
2022-08-23T02:26:36.585Z,25.58
2022-08-23T02:31:39.711Z,22.63
2022-08-23T02:36:44.250Z,20.35
2022-08-23T02:41:48.029Z,23.48
2022-08-23T02:46:51.241Z,26.25
2022-08-23T02:51:54.258Z,18.67
2022-08-23T02:56:57.458Z,19.35
2022-08-23T03:02:00.178Z,24.80
2022-08-23T03:07:08.420Z,23.10
2022-08-23T03:12:12.472Z,21.60
2022-08-23T03:17:20.497Z,26.17
2022-08-23T03:22:24.277Z,29.20
2022-08-23T03:27:28.656Z,20.88
2022-08-23T03:32:31.692Z,24.98
2022-08-23T03:37:34.805Z,20.55
2022-08-23T03:42:44.005Z,21.05
2022-08-23T03:47:49.058Z,21.75
2022-08-23T03:52:52.681Z,21.92
2022-08-23T03:57:56.157Z,24.88
2022-08-23T04:02:59.242Z,24.63
2022-08-23T04:08:11.154Z,25.55
2022-08-23T04:13:16.825Z,25.95
2022-08-23T04:18:19.651Z,29.63
2022-08-23T04:23:22.725Z,25.42
2022-08-23T04:28:29.101Z,29.13
2022-08-23T04:33:33.161Z,28.05
2022-08-23T04:38:36.183Z,29.63
2022-08-23T04:43:44.084Z,24.75
2022-08-23T04:48:49.200Z,25.85
2022-08-23T04:53:54.017Z,19.10
2022-08-23T04:59:16.658Z,23.52
2022-08-23T05:04:21.432Z,22.00
2022-08-23T05:09:25.280Z,18.35
2022-08-23T05:14:28.763Z,18.48
2022-08-23T05:19:31.744Z,17.60
2022-08-23T05:24:34.673Z,16.92
2022-08-23T05:29:37.450Z,16.23
2022-08-23T05:34:40.274Z,14.60
2022-08-23T05:39:46.180Z,15.40
2022-08-23T05:44:48.940Z,14.77
2022-08-23T05:49:56.984Z,20.08
2022-08-23T05:55:02.833Z,13.80
2022-08-23T06:00:17.312Z,20.08
2022-08-23T06:05:22.856Z,11.43
2022-08-23T06:10:26.711Z,18.67
2022-08-23T06:15:35.998Z,15.77
2022-08-23T06:20:38.960Z,16.67
2022-08-23T06:25:43.976Z,35.38
2022-08-23T06:30:50.069Z,14.10
2022-08-23T06:36:13.894Z,14.77
2022-08-23T06:41:42.506Z,15.38
2022-08-23T06:47:03.622Z,18.67
2022-08-23T06:52:06.883Z,17.70
2022-08-23T06:57:25.825Z,16.85
2022-08-23T07:02:54.950Z,11.93
2022-08-23T07:08:16.308Z,14.90
2022-08-23T07:13:20.078Z,15.10
2022-08-23T07:18:22.754Z,22.60
2022-08-23T07:23:27.257Z,16.10
2022-08-23T07:28:30.720Z,14.85
2022-08-23T07:33:33.729Z,16.08
2022-08-23T07:38:47.609Z,12.70
2022-08-23T07:43:51.160Z,19.55
2022-08-23T07:48:56.062Z,15.65
2022-08-23T07:54:07.137Z,17.75
2022-08-23T07:59:13.051Z,24.08
2022-08-23T08:04:44.130Z,15.65
2022-08-23T08:09:49.002Z,20.90
2022-08-23T08:14:53.597Z,16.02
2022-08-23T08:20:00.592Z,16.55
2022-08-23T08:25:38.619Z,15.27
2022-08-23T08:30:44.077Z,14.45
2022-08-23T08:35:57.868Z,19.73
2022-08-23T08:41:11.008Z,16.73
2022-08-23T08:46:25.993Z,13.75
2022-08-23T08:51:47.871Z,9.45
2022-08-23T08:56:56.006Z,16.20
2022-08-23T09:02:00.558Z,12.43
2022-08-23T09:07:31.115Z,18.02
2022-08-23T09:12:49.576Z,11.40
2022-08-23T09:17:54.900Z,12.68
2022-08-23T09:23:17.936Z,18.48
2022-08-23T09:28:22.263Z,13.70
2022-08-23T09:33:44.217Z,13.07
2022-08-23T09:39:07.153Z,16.88
2022-08-23T09:44:13.939Z,9.10
2022-08-23T09:49:26.333Z,12.17
2022-08-23T09:54:35.295Z,9.98
2022-08-23T09:59:44.917Z,11.45
2022-08-23T10:05:03.930Z,11.70
2022-08-23T10:10:33.308Z,12.52
2022-08-23T10:16:09.923Z,11.88
2022-08-23T10:21:47.386Z,10.43
2022-08-23T10:33:23.337Z,13.13
2022-08-23T10:38:45.278Z,9.82
2022-08-23T10:44:07.168Z,39.22
2022-08-23T10:49:13.131Z,10.60
2022-08-23T10:54:36.032Z,8.82
2022-08-23T10:59:47.324Z,10.45
2022-08-23T11:05:03.785Z,9.45
2022-08-23T11:10:31.769Z,11.53
2022-08-23T11:15:45.003Z,11.10
2022-08-23T11:20:49.286Z,10.88
2022-08-23T11:25:56.408Z,6.28
2022-08-23T11:31:09.234Z,8.13
2022-08-23T11:36:12.522Z,9.90
2022-08-23T11:41:24.943Z,7.93
2022-08-23T11:46:28.233Z,7.57
2022-08-23T11:51:50.745Z,6.13
2022-08-23T11:57:20.177Z,6.90
2022-08-23T12:02:32.293Z,9.47
2022-08-23T12:07:47.438Z,7.72
2022-08-23T12:13:33.176Z,6.20
2022-08-23T12:18:42.518Z,9.68
2022-08-23T12:23:57.548Z,6.35
2022-08-23T12:29:18.982Z,7.65
2022-08-23T12:34:42.148Z,7.97
2022-08-23T12:39:55.326Z,7.32
2022-08-23T12:45:20.838Z,9.30
2022-08-23T12:50:33.484Z,10.20
2022-08-23T12:55:50.131Z,10.38
2022-08-23T13:00:59.396Z,9.25
2022-08-23T13:06:07.273Z,7.47
2022-08-23T13:11:18.261Z,7.72
2022-08-23T13:16:36.239Z,11.27
2022-08-23T13:21:39.750Z,13.38
2022-08-23T13:26:44.193Z,8.10
2022-08-23T13:32:04.131Z,9.68
2022-08-23T13:37:23.654Z,10.52
2022-08-23T13:42:32.816Z,11.15
2022-08-23T13:47:36.435Z,10.15
2022-08-23T13:53:03.101Z,6.38
2022-08-23T13:58:11.478Z,8.07
2022-08-23T14:08:16.651Z,9.05
2022-08-23T14:13:29.934Z,7.85
2022-08-23T14:18:33.403Z,7.60
2022-08-23T14:23:36.115Z,10.77
2022-08-23T14:28:43.873Z,8.65
2022-08-23T14:33:48.332Z,9.13
2022-08-23T14:38:51.006Z,8.20
2022-08-23T14:43:54.156Z,13.25
2022-08-23T14:48:57.085Z,8.73
2022-08-23T14:54:03.985Z,10.95
2022-08-23T14:59:07.012Z,11.15
2022-08-23T15:04:10.276Z,14.57
2022-08-23T15:09:12.938Z,12.93
2022-08-23T15:14:15.821Z,9.57
2022-08-23T15:19:18.536Z,24.52
2022-08-23T15:24:21.390Z,14.63
2022-08-23T15:29:24.219Z,14.52
2022-08-23T15:34:26.992Z,12.30
2022-08-23T15:39:29.825Z,9.75
2022-08-23T15:44:32.594Z,11.90
2022-08-23T15:49:36.614Z,15.00
2022-08-23T15:54:39.703Z,19.73
2022-08-23T15:59:43.160Z,18.65
2022-08-23T16:04:46.071Z,13.15
2022-08-23T16:09:49.048Z,15.70
2022-08-23T16:14:52.292Z,18.38
2022-08-23T16:19:54.997Z,20.13
2022-08-23T16:24:57.942Z,18.00
2022-08-23T16:30:00.651Z,19.92
2022-08-23T16:35:04.298Z,19.85
2022-08-23T16:40:08.738Z,17.92
2022-08-23T16:45:12.286Z,13.88
2022-08-23T16:50:15.360Z,17.15
2022-08-23T16:55:18.097Z,15.73
2022-08-23T17:00:21.633Z,13.73
2022-08-23T17:05:24.899Z,18.48
2022-08-23T17:10:28.324Z,16.60
2022-08-23T17:15:34.491Z,15.73
2022-08-23T17:20:39.451Z,25.30
2022-08-23T17:25:44.567Z,20.10
2022-08-23T17:30:47.828Z,37.38
2022-08-23T17:35:50.558Z,32.60
2022-08-23T17:40:53.465Z,29.50
2022-08-23T17:45:56.220Z,42.20
2022-08-23T17:51:01.612Z,37.53
2022-08-23T17:56:05.837Z,37.75
2022-08-23T18:01:12.844Z,30.02
2022-08-23T18:06:17.547Z,26.40
2022-08-23T18:11:20.848Z,31.30
2022-08-23T18:16:26.295Z,29.70
2022-08-23T18:21:30.831Z,32.25
2022-08-23T18:26:53.973Z,26.60
2022-08-23T18:31:56.944Z,26.67
2022-08-23T18:37:00.799Z,22.92
2022-08-23T18:42:05.588Z,24.98
2022-08-23T18:47:08.577Z,29.65
2022-08-23T18:52:11.203Z,24.60
2022-08-23T18:57:16.199Z,20.40
2022-08-23T19:02:19.791Z,23.85
2022-08-23T19:07:22.552Z,23.08
2022-08-23T19:12:26.253Z,22.45
2022-08-23T19:17:29.075Z,22.98
2022-08-23T19:22:31.775Z,22.48
2022-08-23T19:27:35.095Z,27.08
2022-08-23T19:32:39.725Z,24.73
2022-08-23T19:37:43.900Z,17.08
2022-08-23T19:42:50.095Z,18.05
2022-08-23T19:47:54.028Z,26.67
2022-08-23T19:52:57.322Z,17.30
2022-08-23T19:58:01.185Z,18.88
2022-08-23T20:03:04.184Z,14.75
2022-08-23T20:08:07.581Z,19.88
2022-08-23T20:13:10.238Z,19.40
2022-08-23T20:18:13.016Z,18.50
2022-08-23T20:23:34.377Z,17.58
2022-08-23T20:33:42.289Z,18.85
2022-08-23T20:38:48.910Z,16.17
2022-08-23T20:43:51.559Z,23.10
2022-08-23T20:48:57.550Z,13.15
2022-08-23T20:54:01.336Z,16.75
2022-08-23T20:59:08.180Z,15.07
2022-08-23T21:04:12.784Z,13.18
2022-08-23T21:09:20.539Z,15.70
2022-08-23T21:14:25.493Z,15.43
2022-08-23T21:19:30.145Z,17.58
2022-08-23T21:24:33.079Z,16.60
2022-08-23T21:29:59.350Z,11.23
2022-08-23T21:35:35.799Z,10.68
2022-08-23T21:40:40.225Z,14.07
2022-08-23T21:45:43.295Z,11.07
2022-08-23T21:50:46.613Z,16.15
2022-08-23T21:55:49.606Z,16.17
2022-08-23T22:00:52.679Z,9.48
2022-08-23T22:05:55.691Z,13.15
2022-08-23T22:10:59.567Z,10.63
2022-08-23T22:16:02.638Z,16.58
2022-08-23T22:21:05.769Z,8.82
2022-08-23T22:26:08.460Z,9.45
2022-08-23T22:31:13.904Z,13.60
2022-08-23T22:36:21.967Z,11.65
2022-08-23T22:41:28.418Z,12.20
2022-08-23T22:46:34.194Z,11.95
2022-08-23T22:51:37.617Z,15.55
2022-08-23T22:56:49.403Z,12.52
2022-08-23T23:01:54.766Z,11.60
2022-08-23T23:06:59.529Z,15.75
2022-08-23T23:12:02.531Z,14.32
2022-08-23T23:17:05.340Z,16.00
2022-08-23T23:22:08.950Z,9.80
2022-08-23T23:27:11.971Z,12.68
2022-08-23T23:32:15.859Z,16.08
2022-08-23T23:37:18.578Z,14.93
2022-08-23T23:42:21.237Z,13.35
2022-08-23T23:47:24.874Z,10.57
2022-08-23T23:52:27.720Z,11.68
2022-08-23T23:57:31.123Z,20.10
